sensor_id;sensor_type;location;lat;lon;timestamp;pressure;altitude;pressure_sealevel;temperature;humidity
22000;BME280;11164;48.818;2.322;2022-11-20T00:00:29;100460.75;;;9.56;48.15
22000;BME280;11164;48.818;2.322;2022-11-20T00:02:54;100463.47;;;9.56;48.13
22000;BME280;11164;48.818;2.322;2022-11-20T00:05:19;100460.84;;;9.41;48.24
22000;BME280;11164;48.818;2.322;2022-11-20T00:07:46;100461.09;;;9.46;48.13
22000;BME280;11164;48.818;2.322;2022-11-20T00:10:11;100460.69;;;9.28;48.31
22000;BME280;11164;48.818;2.322;2022-11-20T00:12:36;100458.22;;;9.26;48.53
22000;BME280;11164;48.818;2.322;2022-11-20T00:15:03;100459.31;;;9.32;48.27
22000;BME280;11164;48.818;2.322;2022-11-20T00:17:28;100454.28;;;9.29;48.08
22000;BME280;11164;48.818;2.322;2022-11-20T00:19:53;100467.19;;;9.33;48.11
22000;BME280;11164;48.818;2.322;2022-11-20T00:22:19;100457.69;;;9.16;48.19
22000;BME280;11164;48.818;2.322;2022-11-20T00:24:44;100460.06;;;9.26;48.06
22000;BME280;11164;48.818;2.322;2022-11-20T00:27:09;100455.84;;;9.38;47.55
22000;BME280;11164;48.818;2.322;2022-11-20T00:29:35;100460.69;;;9.28;47.92
22000;BME280;11164;48.818;2.322;2022-11-20T00:32:00;100457.97;;;9.21;47.99
22000;BME280;11164;48.818;2.322;2022-11-20T00:34:25;100464.50;;;9.33;47.66
22000;BME280;11164;48.818;2.322;2022-11-20T00:36:51;100465.59;;;9.39;47.50
22000;BME280;11164;48.818;2.322;2022-11-20T00:39:16;100468.03;;;9.34;47.40
22000;BME280;11164;48.818;2.322;2022-11-20T00:41:41;100472.84;;;9.39;47.24
22000;BME280;11164;48.818;2.322;2022-11-20T00:44:06;100469.28;;;9.38;47.43
22000;BME280;11164;48.818;2.322;2022-11-20T00:46:32;100473.13;;;9.29;47.56
22000;BME280;11164;48.818;2.322;2022-11-20T00:48:57;100482.34;;;8.98;48.06
22000;BME280;11164;48.818;2.322;2022-11-20T00:51:25;100474.16;;;9.06;47.73
22000;BME280;11164;48.818;2.322;2022-11-20T00:53:50;100478.19;;;9.17;47.67
22000;BME280;11164;48.818;2.322;2022-11-20T00:56:18;100478.56;;;9.14;47.47
22000;BME280;11164;48.818;2.322;2022-11-20T00:58:46;100473.97;;;9.08;47.64
22000;BME280;11164;48.818;2.322;2022-11-20T01:01:14;100481.28;;;8.77;48.26
22000;BME280;11164;48.818;2.322;2022-11-20T01:03:43;100476.56;;;8.79;47.95
22000;BME280;11164;48.818;2.322;2022-11-20T01:06:17;100462.78;;;8.68;48.31
22000;BME280;11164;48.818;2.322;2022-11-20T01:08:44;100470.59;;;8.84;47.97
22000;BME280;11164;48.818;2.322;2022-11-20T01:11:16;100472.03;;;8.80;47.98
22000;BME280;11164;48.818;2.322;2022-11-20T01:13:42;100476.34;;;8.81;47.65
22000;BME280;11164;48.818;2.322;2022-11-20T01:16:14;100473.28;;;8.84;47.72
22000;BME280;11164;48.818;2.322;2022-11-20T01:18:42;100475.25;;;8.75;47.88
22000;BME280;11164;48.818;2.322;2022-11-20T01:21:10;100474.72;;;8.65;48.09
22000;BME280;11164;48.818;2.322;2022-11-20T01:23:38;100484.56;;;8.73;47.80
22000;BME280;11164;48.818;2.322;2022-11-20T01:26:06;100477.34;;;8.58;47.86
22000;BME280;11164;48.818;2.322;2022-11-20T01:28:32;100470.13;;;8.59;47.89
22000;BME280;11164;48.818;2.322;2022-11-20T01:30:58;100478.66;;;8.62;47.70
22000;BME280;11164;48.818;2.322;2022-11-20T01:33:23;100483.50;;;8.37;48.20
22000;BME280;11164;48.818;2.322;2022-11-20T01:35:49;100468.13;;;8.16;48.87
22000;BME280;11164;48.818;2.322;2022-11-20T01:38:15;100463.97;;;8.14;48.59
22000;BME280;11164;48.818;2.322;2022-11-20T01:40:41;100462.22;;;8.21;48.52
22000;BME280;11164;48.818;2.322;2022-11-20T01:43:14;100465.72;;;8.36;48.11
22000;BME280;11164;48.818;2.322;2022-11-20T01:48:38;100470.50;;;8.41;47.89
22000;BME280;11164;48.818;2.322;2022-11-20T01:51:07;100458.75;;;8.42;47.67
22000;BME280;11164;48.818;2.322;2022-11-20T01:53:37;100468.78;;;8.18;48.01
22000;BME280;11164;48.818;2.322;2022-11-20T01:56:05;100462.00;;;8.37;48.04
22000;BME280;11164;48.818;2.322;2022-11-20T01:58:35;100467.16;;;8.54;47.76
22000;BME280;11164;48.818;2.322;2022-11-20T02:01:03;100464.03;;;8.35;47.93
22000;BME280;11164;48.818;2.322;2022-11-20T02:03:29;100455.53;;;8.17;48.17
22000;BME280;11164;48.818;2.322;2022-11-20T02:06:12;100450.16;;;8.17;48.46
22000;BME280;11164;48.818;2.322;2022-11-20T02:08:39;100460.53;;;8.20;48.31
22000;BME280;11164;48.818;2.322;2022-11-20T02:11:05;100453.22;;;8.29;48.12
22000;BME280;11164;48.818;2.322;2022-11-20T02:13:30;100451.38;;;8.29;47.81
22000;BME280;11164;48.818;2.322;2022-11-20T02:16:27;100453.78;;;8.24;48.10
22000;BME280;11164;48.818;2.322;2022-11-20T02:18:55;100460.53;;;8.20;48.39
22000;BME280;11164;48.818;2.322;2022-11-20T02:21:40;100448.59;;;8.22;48.30
22000;BME280;11164;48.818;2.322;2022-11-20T02:24:14;100444.16;;;8.15;48.29
22000;BME280;11164;48.818;2.322;2022-11-20T02:29:31;100446.91;;;8.21;47.99
22000;BME280;11164;48.818;2.322;2022-11-20T02:31:58;100455.44;;;8.25;47.93
22000;BME280;11164;48.818;2.322;2022-11-20T02:34:25;100445.06;;;8.22;48.02
22000;BME280;11164;48.818;2.322;2022-11-20T02:36:51;100440.34;;;8.24;48.02
22000;BME280;11164;48.818;2.322;2022-11-20T02:39:19;100437.53;;;8.32;47.83
22000;BME280;11164;48.818;2.322;2022-11-20T02:41:45;100431.63;;;8.22;48.21
22000;BME280;11164;48.818;2.322;2022-11-20T02:44:11;100428.94;;;8.22;48.27
22000;BME280;11164;48.818;2.322;2022-11-20T02:46:36;100433.59;;;8.28;48.01
22000;BME280;11164;48.818;2.322;2022-11-20T02:49:02;100424.38;;;8.37;48.04
22000;BME280;11164;48.818;2.322;2022-11-20T02:51:28;100418.81;;;8.39;47.55
22000;BME280;11164;48.818;2.322;2022-11-20T02:53:53;100417.44;;;8.43;47.49
22000;BME280;11164;48.818;2.322;2022-11-20T02:56:19;100413.09;;;8.27;48.22
22000;BME280;11164;48.818;2.322;2022-11-20T02:58:45;100410.63;;;8.26;48.39
22000;BME280;11164;48.818;2.322;2022-11-20T03:01:11;100392.66;;;8.26;48.09
22000;BME280;11164;48.818;2.322;2022-11-20T03:03:36;100394.03;;;8.22;48.50
22000;BME280;11164;48.818;2.322;2022-11-20T03:06:02;100379.47;;;8.31;48.40
22000;BME280;11164;48.818;2.322;2022-11-20T03:08:27;100389.31;;;8.24;48.54
22000;BME280;11164;48.818;2.322;2022-11-20T03:10:53;100391.88;;;8.32;48.61
22000;BME280;11164;48.818;2.322;2022-11-20T03:13:18;100383.72;;;8.40;48.24
22000;BME280;11164;48.818;2.322;2022-11-20T03:15:44;100382.69;;;8.41;48.51
22000;BME280;11164;48.818;2.322;2022-11-20T03:18:09;100376.03;;;8.37;48.66
22000;BME280;11164;48.818;2.322;2022-11-20T03:20:34;100372.50;;;8.37;48.36
22000;BME280;11164;48.818;2.322;2022-11-20T03:23:00;100369.66;;;8.23;48.99
22000;BME280;11164;48.818;2.322;2022-11-20T03:25:25;100370.16;;;8.49;48.21
22000;BME280;11164;48.818;2.322;2022-11-20T03:27:51;100369.34;;;8.48;48.69
22000;BME280;11164;48.818;2.322;2022-11-20T03:30:16;100359.03;;;8.52;48.59
22000;BME280;11164;48.818;2.322;2022-11-20T03:32:42;100362.84;;;8.42;48.39
22000;BME280;11164;48.818;2.322;2022-11-20T03:35:08;100364.19;;;8.53;48.35
22000;BME280;11164;48.818;2.322;2022-11-20T03:37:33;100358.72;;;8.40;48.75
22000;BME280;11164;48.818;2.322;2022-11-20T03:39:59;100366.97;;;8.60;48.12
22000;BME280;11164;48.818;2.322;2022-11-20T03:42:24;100354.44;;;8.31;48.95
22000;BME280;11164;48.818;2.322;2022-11-20T03:45:08;100357.53;;;8.28;49.05
22000;BME280;11164;48.818;2.322;2022-11-20T03:47:33;100353.44;;;8.32;48.95
22000;BME280;11164;48.818;2.322;2022-11-20T03:49:59;100368.03;;;8.44;48.17
22000;BME280;11164;48.818;2.322;2022-11-20T03:52:24;100350.66;;;8.40;48.33
22000;BME280;11164;48.818;2.322;2022-11-20T03:54:49;100363.38;;;8.53;48.17
22000;BME280;11164;48.818;2.322;2022-11-20T03:57:15;100354.44;;;8.31;48.90
22000;BME280;11164;48.818;2.322;2022-11-20T03:59:40;100357.09;;;8.46;48.46
22000;BME280;11164;48.818;2.322;2022-11-20T04:02:05;100353.41;;;8.47;48.64
22000;BME280;11164;48.818;2.322;2022-11-20T04:04:31;100351.13;;;8.29;48.83
22000;BME280;11164;48.818;2.322;2022-11-20T04:06:56;100348.06;;;8.32;49.04
22000;BME280;11164;48.818;2.322;2022-11-20T04:09:21;100355.69;;;8.50;48.42
22000;BME280;11164;48.818;2.322;2022-11-20T04:11:47;100343.28;;;8.49;48.33
22000;BME280;11164;48.818;2.322;2022-11-20T04:14:14;100345.34;;;8.47;48.51
22000;BME280;11164;48.818;2.322;2022-11-20T04:16:40;100345.09;;;8.63;48.48
22000;BME280;11164;48.818;2.322;2022-11-20T04:19:08;100343.47;;;8.69;48.27
22000;BME280;11164;48.818;2.322;2022-11-20T04:21:35;100343.22;;;8.63;48.26
22000;BME280;11164;48.818;2.322;2022-11-20T04:24:00;100344.41;;;8.76;48.19
22000;BME280;11164;48.818;2.322;2022-11-20T04:26:27;100335.72;;;8.80;47.76
22000;BME280;11164;48.818;2.322;2022-11-20T04:28:53;100335.47;;;8.75;47.96
22000;BME280;11164;48.818;2.322;2022-11-20T04:31:21;100336.28;;;8.69;48.39
22000;BME280;11164;48.818;2.322;2022-11-20T04:33:47;100336.97;;;8.56;48.57
22000;BME280;11164;48.818;2.322;2022-11-20T04:36:17;100325.44;;;8.62;48.17
22000;BME280;11164;48.818;2.322;2022-11-20T04:38:43;100334.72;;;8.60;48.38
22000;BME280;11164;48.818;2.322;2022-11-20T04:41:17;100338.97;;;8.69;47.85
22000;BME280;11164;48.818;2.322;2022-11-20T04:43:47;100339.41;;;8.73;48.17
22000;BME280;11164;48.818;2.322;2022-11-20T04:46:13;100333.69;;;8.82;47.97
22000;BME280;11164;48.818;2.322;2022-11-20T04:48:39;100346.09;;;8.84;47.91
22000;BME280;11164;48.818;2.322;2022-11-20T04:51:04;100341.75;;;8.82;47.70
22000;BME280;11164;48.818;2.322;2022-11-20T04:53:30;100335.72;;;8.80;47.93
22000;BME280;11164;48.818;2.322;2022-11-20T04:56:07;100336.19;;;8.84;47.37
22000;BME280;11164;48.818;2.322;2022-11-20T04:58:33;100331.25;;;8.88;47.55
22000;BME280;11164;48.818;2.322;2022-11-20T05:01:28;100330.84;;;8.91;47.01
22000;BME280;11164;48.818;2.322;2022-11-20T05:03:53;100319.84;;;8.86;47.54
22000;BME280;11164;48.818;2.322;2022-11-20T05:06:20;100326.31;;;8.91;47.21
22000;BME280;11164;48.818;2.322;2022-11-20T05:08:46;100329.91;;;8.98;47.22
22000;BME280;11164;48.818;2.322;2022-11-20T05:11:18;100321.28;;;8.81;47.63
22000;BME280;11164;48.818;2.322;2022-11-20T05:13:43;100322.63;;;8.71;47.71
22000;BME280;11164;48.818;2.322;2022-11-20T05:16:12;100326.78;;;8.73;47.59
22000;BME280;11164;48.818;2.322;2022-11-20T05:18:38;100324.81;;;8.60;47.70
22000;BME280;11164;48.818;2.322;2022-11-20T05:21:05;100322.25;;;8.52;47.98
22000;BME280;11164;48.818;2.322;2022-11-20T05:23:31;100321.47;;;8.58;47.68
22000;BME280;11164;48.818;2.322;2022-11-20T05:25:57;100314.94;;;8.46;47.76
22000;BME280;11164;48.818;2.322;2022-11-20T05:28:24;100319.78;;;8.36;48.17
22000;BME280;11164;48.818;2.322;2022-11-20T05:30:50;100317.00;;;8.22;48.39
22000;BME280;11164;48.818;2.322;2022-11-20T05:33:16;100328.28;;;8.18;48.20
22000;BME280;11164;48.818;2.322;2022-11-20T05:35:41;100327.38;;;8.11;48.48
22000;BME280;11164;48.818;2.322;2022-11-20T05:38:07;100319.16;;;8.12;48.27
22000;BME280;11164;48.818;2.322;2022-11-20T05:40:32;100312.88;;;8.05;48.38
22000;BME280;11164;48.818;2.322;2022-11-20T05:42:58;100315.38;;;8.07;47.75
22000;BME280;11164;48.818;2.322;2022-11-20T05:45:23;100306.28;;;8.08;47.84
22000;BME280;11164;48.818;2.322;2022-11-20T05:47:48;100317.63;;;8.24;47.37
22000;BME280;11164;48.818;2.322;2022-11-20T05:50:14;100312.25;;;8.24;47.58
22000;BME280;11164;48.818;2.322;2022-11-20T05:52:40;100312.50;;;8.30;47.28
22000;BME280;11164;48.818;2.322;2022-11-20T05:55:06;100308.59;;;8.32;46.96
22000;BME280;11164;48.818;2.322;2022-11-20T05:57:31;100320.56;;;8.30;47.42
22000;BME280;11164;48.818;2.322;2022-11-20T05:59:56;100312.25;;;8.24;47.47
22000;BME280;11164;48.818;2.322;2022-11-20T06:02:22;100316.28;;;8.14;47.50
22000;BME280;11164;48.818;2.322;2022-11-20T06:04:47;100302.94;;;8.20;47.29
22000;BME280;11164;48.818;2.322;2022-11-20T06:07:13;100307.78;;;8.32;46.95
22000;BME280;11164;48.818;2.322;2022-11-20T06:09:38;100309.31;;;8.41;46.71
22000;BME280;11164;48.818;2.322;2022-11-20T06:12:04;100273.13;;;8.15;47.00
22000;BME280;11164;48.818;2.322;2022-11-20T06:14:30;100289.69;;;8.19;47.13
22000;BME280;11164;48.818;2.322;2022-11-20T06:16:55;100297.13;;;8.02;47.89
22000;BME280;11164;48.818;2.322;2022-11-20T06:19:20;100289.25;;;8.00;47.99
22000;BME280;11164;48.818;2.322;2022-11-20T06:21:48;100294.63;;;7.85;48.01
22000;BME280;11164;48.818;2.322;2022-11-20T06:24:14;100301.41;;;7.81;48.00
22000;BME280;11164;48.818;2.322;2022-11-20T06:26:39;100296.03;;;7.81;48.23
22000;BME280;11164;48.818;2.322;2022-11-20T06:29:04;100275.56;;;7.80;47.93
22000;BME280;11164;48.818;2.322;2022-11-20T06:31:30;100277.69;;;7.85;48.34
22000;BME280;11164;48.818;2.322;2022-11-20T06:33:57;100288.47;;;7.70;48.31
22000;BME280;11164;48.818;2.322;2022-11-20T06:36:23;100289.66;;;7.82;47.89
22000;BME280;11164;48.818;2.322;2022-11-20T06:38:48;100287.97;;;7.81;48.07
22000;BME280;11164;48.818;2.322;2022-11-20T06:41:16;100287.16;;;7.81;47.71
22000;BME280;11164;48.818;2.322;2022-11-20T06:43:42;100291.78;;;7.72;48.44
22000;BME280;11164;48.818;2.322;2022-11-20T06:46:09;100281.53;;;7.61;48.34
22000;BME280;11164;48.818;2.322;2022-11-20T06:48:35;100292.53;;;7.66;48.46
22000;BME280;11164;48.818;2.322;2022-11-20T06:51:03;100289.03;;;7.50;48.18
22000;BME280;11164;48.818;2.322;2022-11-20T06:53:29;100282.38;;;7.46;48.43
22000;BME280;11164;48.818;2.322;2022-11-20T06:55:55;100286.97;;;7.53;48.71
22000;BME280;11164;48.818;2.322;2022-11-20T06:58:21;100284.56;;;7.58;48.20
22000;BME280;11164;48.818;2.322;2022-11-20T07:00:46;100292.63;;;7.58;48.29
22000;BME280;11164;48.818;2.322;2022-11-20T07:03:12;100298.25;;;7.63;48.30
22000;BME280;11164;48.818;2.322;2022-11-20T07:05:38;100301.50;;;7.73;48.19
22000;BME280;11164;48.818;2.322;2022-11-20T07:08:04;100300.03;;;7.71;48.22
22000;BME280;11164;48.818;2.322;2022-11-20T07:10:30;100302.34;;;7.59;48.68
22000;BME280;11164;48.818;2.322;2022-11-20T07:12:55;100303.47;;;7.49;48.80
22000;BME280;11164;48.818;2.322;2022-11-20T07:15:22;100303.66;;;7.48;48.86
22000;BME280;11164;48.818;2.322;2022-11-20T07:17:48;100303.06;;;7.53;48.74
22000;BME280;11164;48.818;2.322;2022-11-20T07:20:14;100299.94;;;7.49;48.84
22000;BME280;11164;48.818;2.322;2022-11-20T07:22:40;100300.22;;;7.54;48.79
22000;BME280;11164;48.818;2.322;2022-11-20T07:25:06;100306.03;;;7.58;48.80
22000;BME280;11164;48.818;2.322;2022-11-20T07:27:31;100306.78;;;7.52;49.27
22000;BME280;11164;48.818;2.322;2022-11-20T07:29:57;100294.56;;;7.64;48.70
22000;BME280;11164;48.818;2.322;2022-11-20T07:32:23;100300.41;;;7.67;48.66
22000;BME280;11164;48.818;2.322;2022-11-20T07:34:48;100301.31;;;7.75;48.69
22000;BME280;11164;48.818;2.322;2022-11-20T07:37:14;100301.94;;;7.77;48.64
22000;BME280;11164;48.818;2.322;2022-11-20T07:39:39;100315.94;;;7.72;48.66
22000;BME280;11164;48.818;2.322;2022-11-20T07:42:06;100303.91;;;7.68;48.79
22000;BME280;11164;48.818;2.322;2022-11-20T07:44:31;100301.88;;;7.70;49.12
22000;BME280;11164;48.818;2.322;2022-11-20T07:46:57;100305.66;;;7.76;48.96
22000;BME280;11164;48.818;2.322;2022-11-20T07:49:22;100302.41;;;7.80;48.87
22000;BME280;11164;48.818;2.322;2022-11-20T07:51:50;100304.84;;;7.75;49.10
22000;BME280;11164;48.818;2.322;2022-11-20T07:54:16;100303.16;;;7.74;49.00
22000;BME280;11164;48.818;2.322;2022-11-20T07:56:41;100300.28;;;7.91;48.49
22000;BME280;11164;48.818;2.322;2022-11-20T07:59:07;100298.16;;;7.86;49.26
22000;BME280;11164;48.818;2.322;2022-11-20T08:01:32;100291.56;;;8.03;48.44
22000;BME280;11164;48.818;2.322;2022-11-20T08:03:57;100290.31;;;8.21;48.48
22000;BME280;11164;48.818;2.322;2022-11-20T08:06:23;100295.25;;;8.17;48.34
22000;BME280;11164;48.818;2.322;2022-11-20T08:08:50;100293.91;;;8.28;48.44
22000;BME280;11164;48.818;2.322;2022-11-20T08:11:15;100286.28;;;8.32;48.45
22000;BME280;11164;48.818;2.322;2022-11-20T08:13:59;100291.53;;;8.40;48.27
22000;BME280;11164;48.818;2.322;2022-11-20T08:16:36;100290.13;;;8.44;48.42
22000;BME280;11164;48.818;2.322;2022-11-20T08:19:02;100293.34;;;8.33;48.67
22000;BME280;11164;48.818;2.322;2022-11-20T08:21:27;100291.16;;;8.43;49.01
22000;BME280;11164;48.818;2.322;2022-11-20T08:23:53;100289.22;;;8.58;48.13
22000;BME280;11164;48.818;2.322;2022-11-20T08:26:18;100280.59;;;8.63;48.30
22000;BME280;11164;48.818;2.322;2022-11-20T08:28:43;100279.13;;;8.60;48.39
22000;BME280;11164;48.818;2.322;2022-11-20T08:31:09;100271.47;;;8.86;48.08
22000;BME280;11164;48.818;2.322;2022-11-20T08:33:34;100273.63;;;8.97;47.78
22000;BME280;11164;48.818;2.322;2022-11-20T08:36:01;100268.38;;;8.89;48.16
22000;BME280;11164;48.818;2.322;2022-11-20T08:38:26;100275.09;;;8.99;47.94
22000;BME280;11164;48.818;2.322;2022-11-20T08:40:52;100263.94;;;9.03;48.03
22000;BME280;11164;48.818;2.322;2022-11-20T08:43:35;100261.06;;;9.04;47.83
22000;BME280;11164;48.818;2.322;2022-11-20T08:46:01;100262.16;;;9.16;47.92
22000;BME280;11164;48.818;2.322;2022-11-20T08:48:26;100259.19;;;9.05;48.19
22000;BME280;11164;48.818;2.322;2022-11-20T08:50:52;100246.44;;;8.85;48.34
22000;BME280;11164;48.818;2.322;2022-11-20T08:53:17;100255.97;;;8.88;48.77
22000;BME280;11164;48.818;2.322;2022-11-20T08:55:42;100256.56;;;8.83;48.68
22000;BME280;11164;48.818;2.322;2022-11-20T08:58:08;100256.63;;;8.90;48.36
22000;BME280;11164;48.818;2.322;2022-11-20T09:00:33;100240.63;;;8.81;48.38
22000;BME280;11164;48.818;2.322;2022-11-20T09:02:59;100240.38;;;8.76;48.47
22000;BME280;11164;48.818;2.322;2022-11-20T09:05:26;100238.38;;;8.85;48.78
22000;BME280;11164;48.818;2.322;2022-11-20T09:07:51;100233.97;;;9.06;48.06
22000;BME280;11164;48.818;2.322;2022-11-20T09:10:16;100231.03;;;9.00;48.44
22000;BME280;11164;48.818;2.322;2022-11-20T09:12:42;100233.91;;;8.99;48.45
22000;BME280;11164;48.818;2.322;2022-11-20T09:15:07;100236.06;;;8.82;48.91
22000;BME280;11164;48.818;2.322;2022-11-20T09:17:33;100226.13;;;8.82;48.76
22000;BME280;11164;48.818;2.322;2022-11-20T09:19:58;100224.38;;;8.96;48.54
22000;BME280;11164;48.818;2.322;2022-11-20T09:22:23;100225.94;;;9.12;48.37
22000;BME280;11164;48.818;2.322;2022-11-20T09:24:49;100222.34;;;9.05;48.29
22000;BME280;11164;48.818;2.322;2022-11-20T09:27:14;100222.78;;;9.02;48.40
22000;BME280;11164;48.818;2.322;2022-11-20T09:29:39;100205.28;;;8.85;48.92
22000;BME280;11164;48.818;2.322;2022-11-20T09:32:05;100214.47;;;9.04;48.02
22000;BME280;11164;48.818;2.322;2022-11-20T09:34:31;100207.22;;;8.97;48.59
22000;BME280;11164;48.818;2.322;2022-11-20T09:36:56;100202.88;;;8.96;48.55
22000;BME280;11164;48.818;2.322;2022-11-20T09:39:22;100191.44;;;8.88;49.00
22000;BME280;11164;48.818;2.322;2022-11-20T09:41:59;100194.78;;;8.96;49.15
22000;BME280;11164;48.818;2.322;2022-11-20T09:53:24;100179.13;;;9.07;50.89
22000;BME280;11164;48.818;2.322;2022-11-20T09:55:55;100174.97;;;8.97;49.05
22000;BME280;11164;48.818;2.322;2022-11-20T10:00:52;100179.28;;;8.92;48.98
22000;BME280;11164;48.818;2.322;2022-11-20T10:03:30;100191.88;;;8.91;49.40
22000;BME280;11164;48.818;2.322;2022-11-20T10:06:01;100179.53;;;9.04;48.90
22000;BME280;11164;48.818;2.322;2022-11-20T10:08:40;100177.72;;;9.11;48.98
22000;BME280;11164;48.818;2.322;2022-11-20T10:21:38;100163.63;;;9.09;49.70
22000;BME280;11164;48.818;2.322;2022-11-20T10:29:39;100155.81;;;9.21;49.71
22000;BME280;11164;48.818;2.322;2022-11-20T10:32:14;100145.16;;;9.34;49.99
22000;BME280;11164;48.818;2.322;2022-11-20T10:34:46;100131.31;;;9.37;49.80
22000;BME280;11164;48.818;2.322;2022-11-20T10:37:18;100136.31;;;9.53;49.97
22000;BME280;11164;48.818;2.322;2022-11-20T10:40:04;100130.31;;;9.58;51.99
22000;BME280;11164;48.818;2.322;2022-11-20T10:42:37;100129.91;;;9.61;50.37
22000;BME280;11164;48.818;2.322;2022-11-20T10:45:15;100115.19;;;9.57;51.00
22000;BME280;11164;48.818;2.322;2022-11-20T10:47:44;100127.66;;;9.85;49.90
22000;BME280;11164;48.818;2.322;2022-11-20T10:50:14;100131.41;;;9.97;49.85
22000;BME280;11164;48.818;2.322;2022-11-20T10:55:51;100127.25;;;9.81;51.36
22000;BME280;11164;48.818;2.322;2022-11-20T10:58:42;100128.09;;;9.75;52.08
22000;BME280;11164;48.818;2.322;2022-11-20T11:01:18;100131.59;;;9.75;51.53
22000;BME280;11164;48.818;2.322;2022-11-20T11:03:46;100140.69;;;9.74;50.86
22000;BME280;11164;48.818;2.322;2022-11-20T11:09:02;100116.09;;;9.91;50.75
22000;BME280;11164;48.818;2.322;2022-11-20T11:11:32;100105.91;;;9.86;50.79
22000;BME280;11164;48.818;2.322;2022-11-20T11:14:09;100095.56;;;9.77;51.96
22000;BME280;11164;48.818;2.322;2022-11-20T11:16:35;100095.56;;;9.90;50.81
22000;BME280;11164;48.818;2.322;2022-11-20T11:19:14;100098.03;;;9.85;51.66
22000;BME280;11164;48.818;2.322;2022-11-20T11:21:49;100097.22;;;9.91;52.09
22000;BME280;11164;48.818;2.322;2022-11-20T11:24:26;100088.09;;;9.72;52.46
22000;BME280;11164;48.818;2.322;2022-11-20T11:27:03;100094.88;;;9.41;52.71
22000;BME280;11164;48.818;2.322;2022-11-20T11:29:31;100095.91;;;9.47;51.71
22000;BME280;11164;48.818;2.322;2022-11-20T11:32:06;100099.44;;;9.41;53.70
22000;BME280;11164;48.818;2.322;2022-11-20T11:34:33;100101.53;;;9.52;51.63
22000;BME280;11164;48.818;2.322;2022-11-20T11:37:00;100099.97;;;9.29;52.55
22000;BME280;11164;48.818;2.322;2022-11-20T11:39:28;100095.91;;;9.40;52.07
22000;BME280;11164;48.818;2.322;2022-11-20T11:41:54;100100.03;;;9.36;52.04
22000;BME280;11164;48.818;2.322;2022-11-20T11:44:46;100093.44;;;9.39;53.88
22000;BME280;11164;48.818;2.322;2022-11-20T11:50:18;100086.28;;;9.17;54.43
22000;BME280;11164;48.818;2.322;2022-11-20T12:00:51;100068.69;;;9.15;53.78
22000;BME280;11164;48.818;2.322;2022-11-20T12:03:35;100065.59;;;9.11;54.00
22000;BME280;11164;48.818;2.322;2022-11-20T12:06:19;100064.13;;;9.02;54.80
22000;BME280;11164;48.818;2.322;2022-11-20T12:08:50;100049.88;;;9.15;52.71
22000;BME280;11164;48.818;2.322;2022-11-20T12:14:09;100041.88;;;9.48;52.67
22000;BME280;11164;48.818;2.322;2022-11-20T12:16:38;100038.19;;;9.56;51.83
22000;BME280;11164;48.818;2.322;2022-11-20T12:19:10;100035.28;;;9.51;52.55
22000;BME280;11164;48.818;2.322;2022-11-20T12:45:01;100044.81;;;9.73;53.21
22000;BME280;11164;48.818;2.322;2022-11-20T12:53:11;100054.09;;;9.37;53.50
22000;BME280;11164;48.818;2.322;2022-11-20T12:55:58;100055.13;;;9.36;53.59
22000;BME280;11164;48.818;2.322;2022-11-20T13:01:00;100057.22;;;9.48;53.95
22000;BME280;11164;48.818;2.322;2022-11-20T13:03:51;100058.97;;;9.21;55.99
22000;BME280;11164;48.818;2.322;2022-11-20T13:06:24;100061.91;;;9.26;54.17
22000;BME280;11164;48.818;2.322;2022-11-20T13:08:56;100060.28;;;9.31;53.93
22000;BME280;11164;48.818;2.322;2022-11-20T13:11:32;100061.03;;;9.12;54.69
22000;BME280;11164;48.818;2.322;2022-11-20T13:14:50;100036.31;;;9.56;55.83
22000;BME280;11164;48.818;2.322;2022-11-20T13:19:56;100012.28;;;9.95;52.95
22000;BME280;11164;48.818;2.322;2022-11-20T13:22:29;100022.84;;;10.03;53.01
22000;BME280;11164;48.818;2.322;2022-11-20T13:24:55;100034.03;;;10.00;52.71
22000;BME280;11164;48.818;2.322;2022-11-20T13:27:23;100033.81;;;10.22;52.62
22000;BME280;11164;48.818;2.322;2022-11-20T13:30:00;100046.88;;;9.98;54.37
22000;BME280;11164;48.818;2.322;2022-11-20T13:32:26;100048.34;;;9.94;53.09
22000;BME280;11164;48.818;2.322;2022-11-20T13:35:02;100050.59;;;10.10;53.73
22000;BME280;11164;48.818;2.322;2022-11-20T13:37:36;100049.38;;;10.13;53.63
22000;BME280;11164;48.818;2.322;2022-11-20T13:40:12;100039.34;;;10.40;52.35
22000;BME280;11164;48.818;2.322;2022-11-20T13:43:07;100038.66;;;10.78;52.92
22000;BME280;11164;48.818;2.322;2022-11-20T13:45:33;100047.78;;;10.77;51.99
22000;BME280;11164;48.818;2.322;2022-11-20T13:48:15;100047.41;;;10.67;52.36
22000;BME280;11164;48.818;2.322;2022-11-20T13:50:48;100051.00;;;11.38;53.11
22000;BME280;11164;48.818;2.322;2022-11-20T13:53:33;100051.00;;;11.38;51.56
22000;BME280;11164;48.818;2.322;2022-11-20T13:56:17;100048.44;;;11.18;52.13
22000;BME280;11164;48.818;2.322;2022-11-20T13:59:02;100044.59;;;10.94;52.47
22000;BME280;11164;48.818;2.322;2022-11-20T14:01:30;100038.75;;;11.03;51.90
22000;BME280;11164;48.818;2.322;2022-11-20T14:04:05;100042.44;;;11.09;52.42
22000;BME280;11164;48.818;2.322;2022-11-20T14:06:38;100043.16;;;11.61;51.41
22000;BME280;11164;48.818;2.322;2022-11-20T14:09:04;100045.41;;;11.96;50.50
22000;BME280;11164;48.818;2.322;2022-11-20T14:11:30;100040.19;;;11.70;51.03
22000;BME280;11164;48.818;2.322;2022-11-20T14:16:34;100028.78;;;11.68;51.46
22000;BME280;11164;48.818;2.322;2022-11-20T14:21:47;100033.66;;;12.28;51.21
22000;BME280;11164;48.818;2.322;2022-11-20T14:24:13;100025.56;;;12.28;51.70
22000;BME280;11164;48.818;2.322;2022-11-20T14:26:44;100021.06;;;12.22;51.79
22000;BME280;11164;48.818;2.322;2022-11-20T14:31:39;100015.13;;;12.31;51.93
22000;BME280;11164;48.818;2.322;2022-11-20T14:34:05;100029.22;;;13.07;50.82
22000;BME280;11164;48.818;2.322;2022-11-20T14:36:31;100034.03;;;13.05;50.88
22000;BME280;11164;48.818;2.322;2022-11-20T14:38:56;100034.88;;;12.69;51.47
22000;BME280;11164;48.818;2.322;2022-11-20T14:41:23;100029.81;;;12.17;51.98